createdAt,value
2018-04-11T00:00:49.267Z,59.30
2018-04-11T00:03:16.709Z,59.30
2018-04-11T00:05:44.146Z,59.50
2018-04-11T00:08:11.608Z,59.50
2018-04-11T00:10:39.063Z,59.10
2018-04-11T00:13:06.498Z,58.90
2018-04-11T00:15:34.713Z,59.00
2018-04-11T00:18:02.155Z,59.00
2018-04-11T00:20:29.613Z,59.30
2018-04-11T00:22:57.067Z,59.40
2018-04-11T00:25:24.511Z,59.50
2018-04-11T00:27:52.719Z,59.80
2018-04-11T00:30:20.162Z,59.70
2018-04-11T00:32:47.603Z,59.50
2018-04-11T00:35:15.042Z,59.60
2018-04-11T00:37:43.252Z,59.60
2018-04-11T00:40:10.694Z,59.60
2018-04-11T00:42:38.144Z,58.80
2018-04-11T00:45:05.588Z,58.90
2018-04-11T00:47:33.791Z,59.40
2018-04-11T00:50:01.252Z,59.30
2018-04-11T00:52:28.703Z,59.50
2018-04-11T00:54:56.151Z,59.20
2018-04-11T00:57:23.605Z,59.70
2018-04-11T00:59:51.054Z,59.80
2018-04-11T01:02:19.267Z,59.80
2018-04-11T01:04:46.725Z,59.80
2018-04-11T01:07:14.180Z,59.70
2018-04-11T01:09:41.632Z,59.70
2018-04-11T01:12:09.103Z,59.50
2018-04-11T01:14:36.569Z,59.60
2018-04-11T01:17:04.015Z,60.00
2018-04-11T01:19:31.457Z,60.30
2018-04-11T01:21:58.907Z,60.60
2018-04-11T01:24:26.356Z,60.90
2018-04-11T01:26:53.802Z,61.10
2018-04-11T01:29:21.256Z,61.40
2018-04-11T01:31:48.708Z,61.30
2018-04-11T01:34:16.172Z,62.60
2018-04-11T01:36:43.614Z,61.80
2018-04-11T01:39:11.820Z,62.00
2018-04-11T01:41:39.274Z,62.00
2018-04-11T01:44:06.733Z,62.10
2018-04-11T01:46:34.175Z,62.30
2018-04-11T01:49:01.640Z,62.00
2018-04-11T01:51:29.088Z,62.20
2018-04-11T01:53:56.548Z,62.90
2018-04-11T01:56:24.011Z,63.10
2018-04-11T01:58:51.471Z,63.40
2018-04-11T02:01:18.927Z,63.40
2018-04-11T02:03:46.388Z,63.50
2018-04-11T02:06:13.847Z,63.40
2018-04-11T02:08:41.309Z,64.20
2018-04-11T02:11:08.761Z,63.40
2018-04-11T02:13:36.221Z,63.50
2018-04-11T02:16:03.675Z,63.80
2018-04-11T02:18:31.136Z,64.10
2018-04-11T02:20:58.593Z,63.80
2018-04-11T02:23:26.054Z,63.70
2018-04-11T02:25:53.503Z,63.40
2018-04-11T02:28:20.975Z,63.40
2018-04-11T02:30:48.430Z,63.10
2018-04-11T02:33:16.658Z,62.80
2018-04-11T02:35:44.106Z,62.60
2018-04-11T02:38:12.341Z,63.00
2018-04-11T02:40:39.787Z,63.00
2018-04-11T02:43:07.243Z,63.00
2018-04-11T02:45:34.691Z,62.90
2018-04-11T02:48:02.138Z,63.00
2018-04-11T02:50:29.609Z,63.20
2018-04-11T02:52:57.068Z,63.90
2018-04-11T02:55:24.536Z,62.60
2018-04-11T02:57:52.004Z,63.30
2018-04-11T03:00:19.459Z,63.40
2018-04-11T03:02:46.941Z,64.50
2018-04-11T03:05:15.182Z,66.00
2018-04-11T03:07:42.623Z,65.90
2018-04-11T03:10:10.073Z,66.20
2018-04-11T03:12:37.540Z,64.60
2018-04-11T03:15:04.992Z,64.10
2018-04-11T03:17:32.447Z,64.10
2018-04-11T03:19:59.900Z,63.90
2018-04-11T03:22:27.346Z,64.80
2018-04-11T03:24:54.800Z,65.30
2018-04-11T03:27:22.253Z,64.60
2018-04-11T03:29:49.700Z,64.30
2018-04-11T03:32:17.318Z,66.20
2018-04-11T03:34:44.776Z,66.80
2018-04-11T03:37:12.214Z,67.60
2018-04-11T03:39:39.672Z,68.20
2018-04-11T03:42:07.174Z,68.50
2018-04-11T03:44:34.587Z,68.90
2018-04-11T03:47:02.058Z,69.30
2018-04-11T03:49:29.789Z,69.20
2018-04-11T03:51:57.298Z,69.20
2018-04-11T03:54:25.524Z,69.50
2018-04-11T03:56:52.980Z,69.40
2018-04-11T03:59:20.439Z,69.20
2018-04-11T04:01:47.873Z,68.50
2018-04-11T04:04:15.332Z,68.10
2018-04-11T04:06:42.783Z,67.10
2018-04-11T04:09:10.243Z,66.60
2018-04-11T04:11:37.696Z,67.30
2018-04-11T04:14:17.136Z,67.60
2018-04-11T04:16:56.541Z,66.40
2018-04-11T04:19:35.938Z,65.50
2018-04-11T04:22:03.394Z,67.20
2018-04-11T04:24:30.851Z,67.00
2018-04-11T04:26:58.296Z,66.90
2018-04-11T04:29:25.800Z,66.90
2018-04-11T04:31:53.222Z,66.90
2018-04-11T04:34:20.676Z,66.70
2018-04-11T04:36:48.120Z,66.10
2018-04-11T04:39:15.576Z,67.20
2018-04-11T04:41:43.019Z,68.00
2018-04-11T04:44:10.487Z,68.50
2018-04-11T04:46:37.948Z,68.70
2018-04-11T04:49:05.392Z,68.10
2018-04-11T04:51:32.831Z,68.00
2018-04-11T04:54:01.046Z,68.40
2018-04-11T04:56:28.486Z,68.40
2018-04-11T04:58:55.938Z,68.40
2018-04-11T05:01:23.383Z,66.60
2018-04-11T05:03:50.848Z,66.90
2018-04-11T05:06:18.281Z,67.40
2018-04-11T05:08:46.519Z,70.10
2018-04-11T05:11:14.735Z,67.70
2018-04-11T05:13:42.940Z,66.20
2018-04-11T05:16:10.393Z,66.10
2018-04-11T05:18:37.839Z,65.90
2018-04-11T05:21:05.291Z,67.40
2018-04-11T05:23:32.737Z,66.90
2018-04-11T05:26:00.437Z,67.30
2018-04-11T05:28:28.728Z,69.00
2018-04-11T05:30:56.169Z,68.80
2018-04-11T05:33:23.620Z,69.10
2018-04-11T05:35:51.073Z,69.90
2018-04-11T05:38:18.531Z,70.50
2018-04-11T05:40:45.987Z,70.80
2018-04-11T05:43:13.442Z,70.90
2018-04-11T05:45:40.892Z,71.00
2018-04-11T05:48:08.341Z,71.40
2018-04-11T05:50:35.796Z,71.30
2018-04-11T05:53:03.257Z,71.50
2018-04-11T05:55:30.710Z,71.40
2018-04-11T05:58:04.261Z,69.90
2018-04-11T06:00:31.718Z,79.90
2018-04-11T06:02:59.185Z,69.80
2018-04-11T06:05:26.655Z,70.30
2018-04-11T06:07:54.096Z,70.70
2018-04-11T06:10:21.552Z,70.80
2018-04-11T06:12:49.014Z,70.60
2018-04-11T06:15:16.516Z,70.50
2018-04-11T06:17:43.962Z,70.70
2018-04-11T06:20:11.730Z,70.40
2018-04-11T06:22:39.214Z,69.80
2018-04-11T06:25:06.676Z,68.30
2018-04-11T06:27:34.136Z,67.80
2018-04-11T06:30:01.598Z,66.80
2018-04-11T06:32:29.051Z,65.50
2018-04-11T06:34:56.502Z,64.40
2018-04-11T06:37:23.955Z,63.00
2018-04-11T06:39:51.409Z,61.80
2018-04-11T06:42:18.858Z,61.90
2018-04-11T06:44:46.324Z,59.60
2018-04-11T06:47:13.779Z,58.30
2018-04-11T06:49:41.238Z,57.00
2018-04-11T06:52:12.550Z,52.90
2018-04-11T06:54:40.044Z,52.80
2018-04-11T06:57:07.437Z,51.30
2018-04-11T06:59:35.664Z,51.40
2018-04-11T07:02:03.093Z,51.30
2018-04-11T07:04:30.542Z,50.80
2018-04-11T07:06:58.756Z,50.10
2018-04-11T07:09:26.208Z,50.00
2018-04-11T07:11:53.636Z,49.20
2018-04-11T07:14:21.084Z,49.30
2018-04-11T07:16:49.295Z,48.80
2018-04-11T07:19:16.748Z,48.80
2018-04-11T07:21:47.768Z,48.20
2018-04-11T07:24:15.217Z,47.70
2018-04-11T07:26:43.436Z,47.80
2018-04-11T07:29:10.879Z,47.80
2018-04-11T07:31:38.347Z,47.50
2018-04-11T07:34:05.788Z,47.10
2018-04-11T07:36:33.229Z,48.10
2018-04-11T07:39:10.804Z,47.30
2018-04-11T07:41:39.018Z,46.20
2018-04-11T07:44:06.453Z,46.20
2018-04-11T07:46:33.894Z,44.40
2018-04-11T07:49:02.108Z,43.70
2018-04-11T07:51:29.629Z,43.60
2018-04-11T07:53:57.832Z,42.80
2018-04-11T07:56:25.262Z,42.80
2018-04-11T07:58:52.710Z,42.90
2018-04-11T08:01:20.919Z,42.00
2018-04-11T08:03:48.361Z,41.90
2018-04-11T08:06:15.804Z,41.40
2018-04-11T08:08:43.258Z,40.30
2018-04-11T08:11:11.454Z,40.10
2018-04-11T08:13:38.893Z,40.10
2018-04-11T08:16:07.175Z,39.20
2018-04-11T08:18:34.633Z,34.80
2018-04-11T08:21:02.081Z,37.80
2018-04-11T08:23:29.799Z,36.20
2018-04-11T08:25:57.258Z,36.20
2018-04-11T08:28:24.714Z,36.10
2018-04-11T08:30:52.560Z,36.00
2018-04-11T08:33:20.002Z,35.50
2018-04-11T08:35:47.446Z,35.60
2018-04-11T08:38:19.857Z,34.60
2018-04-11T08:40:47.298Z,35.10
2018-04-11T08:43:14.731Z,34.30
2018-04-11T08:45:42.187Z,34.80
2018-04-11T08:48:09.621Z,34.70
2018-04-11T08:50:37.845Z,35.90
2018-04-11T08:53:06.509Z,35.90
2018-04-11T08:55:33.960Z,36.00
2018-04-11T08:58:01.409Z,36.10
2018-04-11T09:00:28.870Z,35.60
2018-04-11T09:02:56.318Z,34.60
2018-04-11T09:05:24.588Z,34.40
2018-04-11T09:07:51.989Z,34.30
2018-04-11T09:10:19.440Z,34.30
2018-04-11T09:12:46.892Z,34.10
2018-04-11T09:15:14.342Z,34.10
2018-04-11T09:17:41.801Z,34.60
2018-04-11T09:20:09.260Z,34.40
2018-04-11T09:22:36.716Z,35.00
2018-04-11T09:25:04.172Z,35.40
2018-04-11T09:27:31.611Z,35.00
2018-04-11T09:29:59.061Z,35.00
2018-04-11T09:32:26.511Z,34.50
2018-04-11T09:34:54.730Z,34.30
2018-04-11T09:37:22.183Z,34.30
2018-04-11T09:39:49.631Z,33.90
2018-04-11T09:42:17.246Z,34.50
2018-04-11T09:44:44.715Z,33.30
2018-04-11T09:47:12.124Z,33.50
2018-04-11T09:49:39.587Z,33.10
2018-04-11T09:52:07.022Z,32.10
2018-04-11T09:54:34.485Z,33.40
2018-04-11T09:57:05.304Z,32.40
2018-04-11T09:59:32.753Z,33.40
2018-04-11T10:02:00.191Z,32.90
2018-04-11T10:04:28.398Z,33.90
2018-04-11T10:06:55.874Z,33.90
2018-04-11T10:09:23.289Z,33.10
2018-04-11T10:11:50.750Z,32.40
2018-04-11T10:14:18.198Z,32.20
2018-04-11T10:16:46.405Z,30.90
2018-04-11T10:19:13.860Z,30.80
2018-04-11T10:21:41.329Z,31.20
2018-04-11T10:24:08.776Z,29.90
2018-04-11T10:26:36.226Z,30.20
2018-04-11T10:29:03.691Z,30.10
2018-04-11T10:31:31.161Z,30.10
2018-04-11T10:33:58.612Z,29.50
2018-04-11T10:36:26.079Z,30.60
2018-04-11T10:38:53.526Z,30.60
2018-04-11T10:41:20.988Z,30.00
2018-04-11T10:43:48.439Z,30.70
2018-04-11T10:46:15.937Z,30.20
2018-04-11T10:48:43.337Z,29.60
2018-04-11T10:51:10.789Z,29.90
2018-04-11T10:53:38.244Z,30.00
2018-04-11T10:56:05.696Z,30.10
2018-04-11T10:58:33.142Z,30.00
2018-04-11T11:01:00.580Z,29.80
2018-04-11T11:03:28.788Z,30.50
2018-04-11T11:05:56.251Z,30.50
2018-04-11T11:08:23.702Z,30.20
2018-04-11T11:10:51.155Z,29.70
2018-04-11T11:13:18.587Z,30.30
2018-04-11T11:15:46.064Z,32.70
2018-04-11T11:18:13.508Z,32.80
2018-04-11T11:20:52.919Z,32.10
2018-04-11T11:23:22.273Z,33.10
2018-04-11T11:25:49.711Z,33.90
2018-04-11T11:28:17.192Z,34.00
2018-04-11T11:30:44.597Z,34.20
2018-04-11T11:33:12.822Z,33.60
2018-04-11T11:35:40.269Z,33.50
2018-04-11T11:38:07.721Z,33.60
2018-04-11T11:40:35.172Z,34.30
2018-04-11T11:43:02.620Z,34.60
2018-04-11T11:45:30.070Z,34.50
2018-04-11T11:47:57.510Z,34.20
2018-04-11T11:50:25.741Z,35.40
2018-04-11T11:52:53.190Z,35.30
2018-04-11T11:55:20.630Z,35.50
2018-04-11T11:57:48.085Z,35.10
2018-04-11T12:00:15.525Z,35.60
2018-04-11T12:02:42.974Z,35.70
2018-04-11T12:05:11.183Z,35.60
2018-04-11T12:07:38.635Z,35.60
2018-04-11T12:10:06.090Z,35.30
2018-04-11T12:12:33.547Z,35.10
2018-04-11T12:15:00.977Z,35.60
2018-04-11T12:17:28.432Z,37.90
2018-04-11T12:19:56.634Z,35.50
2018-04-11T12:22:24.086Z,31.80
2018-04-11T12:24:51.552Z,33.00
2018-04-11T12:27:18.997Z,34.00
2018-04-11T12:29:46.438Z,33.80
2018-04-11T12:32:13.895Z,34.10
2018-04-11T12:34:41.338Z,34.30
2018-04-11T12:37:09.549Z,35.00
2018-04-11T12:39:36.992Z,34.90
2018-04-11T12:42:04.438Z,35.70
2018-04-11T12:44:31.878Z,33.90
2018-04-11T12:47:00.098Z,33.50
2018-04-11T12:49:27.538Z,33.50
2018-04-11T12:51:54.987Z,34.30
2018-04-11T12:54:22.434Z,34.70
2018-04-11T12:56:50.647Z,35.00
2018-04-11T12:59:18.091Z,34.90
2018-04-11T13:01:45.548Z,34.90
2018-04-11T13:04:12.987Z,35.40
2018-04-11T13:06:40.436Z,35.40
2018-04-11T13:09:07.867Z,34.60
2018-04-11T13:11:35.305Z,34.40
2018-04-11T13:14:02.737Z,33.90
2018-04-11T13:16:30.189Z,32.60
2018-04-11T13:18:57.636Z,33.20
2018-04-11T13:21:25.078Z,34.20
2018-04-11T13:23:52.524Z,34.10
2018-04-11T13:26:20.736Z,33.40
2018-04-11T13:28:48.187Z,33.40
2018-04-11T13:31:15.631Z,33.20
2018-04-11T13:33:43.124Z,33.90
2018-04-11T13:36:10.571Z,33.40
2018-04-11T13:38:38.016Z,33.50
2018-04-11T13:41:05.468Z,32.90
2018-04-11T13:43:32.924Z,32.00
2018-04-11T13:46:00.361Z,32.20
2018-04-11T13:48:27.807Z,32.90
2018-04-11T13:50:56.020Z,32.60
2018-04-11T13:53:23.465Z,32.60
2018-04-11T13:55:50.899Z,32.20
2018-04-11T13:58:19.113Z,32.00
2018-04-11T14:00:46.553Z,31.90
2018-04-11T14:03:13.983Z,31.60
2018-04-11T14:05:42.193Z,33.40
2018-04-11T14:08:09.644Z,33.30
2018-04-11T14:10:37.088Z,33.90
2018-04-11T14:13:04.518Z,33.10
2018-04-11T14:15:32.735Z,33.00
2018-04-11T14:18:00.190Z,33.00
2018-04-11T14:20:27.631Z,33.30
2018-04-11T14:22:55.090Z,33.20
2018-04-11T14:25:22.586Z,32.60
2018-04-11T14:27:50.743Z,31.80
2018-04-11T14:30:18.607Z,31.70
2018-04-11T14:32:46.050Z,32.20
2018-04-11T14:35:13.489Z,32.40
2018-04-11T14:37:40.935Z,31.80
2018-04-11T14:40:09.161Z,31.80
2018-04-11T14:42:36.599Z,31.80
2018-04-11T14:45:04.029Z,31.30
2018-04-11T14:47:31.485Z,31.50
2018-04-11T14:49:58.922Z,30.70
2018-04-11T14:52:27.142Z,31.10
2018-04-11T14:54:54.606Z,31.00
2018-04-11T14:57:22.053Z,32.00
2018-04-11T14:59:49.495Z,32.50
2018-04-11T15:02:16.959Z,32.20
2018-04-11T15:04:44.395Z,32.40
2018-04-11T15:07:11.834Z,32.40
2018-04-11T15:09:40.047Z,31.80
2018-04-11T15:12:07.497Z,31.80
2018-04-11T15:14:34.930Z,32.00
2018-04-11T15:17:03.148Z,32.80
2018-04-11T15:19:30.591Z,32.70
2018-04-11T15:21:58.037Z,32.30
2018-04-11T15:24:25.496Z,32.20
2018-04-11T15:26:52.939Z,30.30
2018-04-11T15:29:21.171Z,30.40
2018-04-11T15:31:49.380Z,30.20
2018-04-11T15:34:17.592Z,26.70
2018-04-11T15:36:45.030Z,26.70
2018-04-11T15:39:12.479Z,27.20
2018-04-11T15:41:39.922Z,25.20
2018-04-11T15:44:08.137Z,25.30
2018-04-11T15:46:38.260Z,25.20
2018-04-11T15:49:05.720Z,25.10
2018-04-11T15:51:33.179Z,25.00
2018-04-11T15:54:00.633Z,25.00
2018-04-11T15:56:28.073Z,25.00
2018-04-11T15:58:55.524Z,25.20
2018-04-11T16:01:22.971Z,25.20
2018-04-11T16:03:50.416Z,25.50
2018-04-11T16:06:18.632Z,25.60
2018-04-11T16:08:46.086Z,25.50
2018-04-11T16:11:13.524Z,25.30
2018-04-11T16:13:40.980Z,25.80
2018-04-11T16:16:08.417Z,25.90
2018-04-11T16:18:36.639Z,25.20
2018-04-11T16:21:04.105Z,25.10
2018-04-11T16:23:31.555Z,25.00
2018-04-11T16:25:59.003Z,25.80
2018-04-11T16:28:27.371Z,25.60
2018-04-11T16:30:55.223Z,25.50
2018-04-11T16:33:23.423Z,25.90
2018-04-11T16:35:50.873Z,25.90
2018-04-11T16:38:18.328Z,26.00
2018-04-11T16:40:45.771Z,25.60
2018-04-11T16:43:13.233Z,26.40
2018-04-11T16:45:40.692Z,26.20
2018-04-11T16:48:08.132Z,26.30
2018-04-11T16:50:35.569Z,26.00
2018-04-11T16:53:12.572Z,26.40
2018-04-11T16:55:40.767Z,26.80
2018-04-11T16:58:08.227Z,26.30
2018-04-11T17:00:35.675Z,26.50
2018-04-11T17:03:03.118Z,26.90
2018-04-11T17:05:30.566Z,26.80
2018-04-11T17:07:58.153Z,27.00
2018-04-11T17:10:25.618Z,27.00
2018-04-11T17:12:53.058Z,27.30
2018-04-11T17:15:20.516Z,27.20
2018-04-11T17:17:47.973Z,26.90
2018-04-11T17:20:15.418Z,26.90
2018-04-11T17:22:54.694Z,27.00
2018-04-11T17:25:34.019Z,27.20
2018-04-11T17:31:22.705Z,27.10
2018-04-11T17:33:50.227Z,27.60
2018-04-11T17:36:17.679Z,27.60
2018-04-11T17:38:45.140Z,27.20
2018-04-11T17:41:12.595Z,27.60
2018-04-11T17:43:40.034Z,27.40
2018-04-11T17:46:07.481Z,28.80
2018-04-11T17:48:35.700Z,27.60
2018-04-11T17:51:03.319Z,27.60
2018-04-11T17:53:31.520Z,27.70
2018-04-11T17:55:58.965Z,27.70
2018-04-11T17:58:26.408Z,27.90
2018-04-11T18:00:54.632Z,27.90
2018-04-11T18:03:22.081Z,27.90
2018-04-11T18:05:49.530Z,27.40
2018-04-11T18:08:16.990Z,28.10
2018-04-11T18:10:44.440Z,28.30
2018-04-11T18:13:11.895Z,28.00
2018-04-11T18:15:39.344Z,28.10
2018-04-11T18:18:06.798Z,27.70
2018-04-11T18:20:34.243Z,28.10
2018-04-11T18:23:01.686Z,28.50
2018-04-11T18:25:29.903Z,28.00
2018-04-11T18:27:57.352Z,28.00
2018-04-11T18:30:24.805Z,28.20
2018-04-11T18:32:52.261Z,28.20
2018-04-11T18:35:19.709Z,28.30
2018-04-11T18:37:47.150Z,28.30
2018-04-11T18:40:14.588Z,28.20
2018-04-11T18:42:42.866Z,28.30
2018-04-11T18:45:10.431Z,28.30
2018-04-11T18:47:37.937Z,28.30
2018-04-11T18:50:05.796Z,28.30
2018-04-11T18:52:33.275Z,28.30
2018-04-11T18:55:00.755Z,31.60
2018-04-11T18:57:28.255Z,29.00
2018-04-11T18:59:55.757Z,29.10
2018-04-11T19:02:23.254Z,29.40
2018-04-11T19:04:51.487Z,30.30
2018-04-11T19:07:18.949Z,30.30
2018-04-11T19:09:47.447Z,31.10
2018-04-11T19:12:15.665Z,30.90
2018-04-11T19:14:43.931Z,31.20
2018-04-11T19:17:11.410Z,31.10
2018-04-11T19:19:38.950Z,31.20
2018-04-11T19:22:06.480Z,31.40
2018-04-11T19:24:34.742Z,32.00
2018-04-11T19:27:03.027Z,31.80
2018-04-11T19:29:31.272Z,32.00
2018-04-11T19:31:58.743Z,31.20
2018-04-11T19:34:26.222Z,31.80
2018-04-11T19:36:53.699Z,32.40
2018-04-11T19:39:21.191Z,31.70
2018-04-11T19:41:49.422Z,32.60
2018-04-11T19:44:16.932Z,32.50
2018-04-11T19:46:44.427Z,32.90
2018-04-11T19:49:12.723Z,32.60
2018-04-11T19:51:40.302Z,32.50
2018-04-11T19:54:07.837Z,45.80
2018-04-11T19:56:35.317Z,33.30
2018-04-11T19:59:02.825Z,33.00
2018-04-11T20:01:31.089Z,33.00
2018-04-11T20:03:59.393Z,32.20
2018-04-11T20:06:26.882Z,32.20
2018-04-11T20:08:54.430Z,32.10
2018-04-11T20:11:21.921Z,32.80
2018-04-11T20:13:49.621Z,32.00
2018-04-11T20:16:17.081Z,31.90
2018-04-11T20:18:45.396Z,32.70
2018-04-11T20:21:12.942Z,32.70
2018-04-11T20:23:40.465Z,32.60
2018-04-11T20:26:08.701Z,32.40
2018-04-11T20:28:36.224Z,32.30
2018-04-11T20:31:03.733Z,32.10
2018-04-11T20:33:31.519Z,31.70
2018-04-11T20:35:59.836Z,31.40
2018-04-11T20:38:27.998Z,31.90
2018-04-11T20:40:55.447Z,31.60
2018-04-11T20:43:22.900Z,32.00
2018-04-11T20:45:50.348Z,31.50
2018-04-11T20:48:18.556Z,32.30
2018-04-11T20:50:45.991Z,32.50
2018-04-11T20:53:13.440Z,33.80
2018-04-11T20:55:41.662Z,31.80
2018-04-11T20:58:09.140Z,31.40
2018-04-11T21:00:36.566Z,31.80
2018-04-11T21:03:04.148Z,32.10
2018-04-11T21:05:32.395Z,34.90
2018-04-11T21:07:59.835Z,34.80
2018-04-11T21:10:27.290Z,34.20
2018-04-11T21:12:54.728Z,31.40
2018-04-11T21:15:22.949Z,32.30
2018-04-11T21:17:50.391Z,32.30
2018-04-11T21:20:17.860Z,35.00
2018-04-11T21:22:45.302Z,32.40
2018-04-11T21:25:12.760Z,34.30
2018-04-11T21:27:40.212Z,32.50
2018-04-11T21:30:07.655Z,33.50
2018-04-11T21:32:35.117Z,33.30
2018-04-11T21:35:02.564Z,32.70
2018-04-11T21:37:30.019Z,32.10
2018-04-11T21:39:57.467Z,33.50
2018-04-11T21:42:25.675Z,35.40
2018-04-11T21:44:53.131Z,35.50
2018-04-11T21:47:20.616Z,33.20
2018-04-11T21:49:49.580Z,32.70
2018-04-11T21:52:17.202Z,35.00
2018-04-11T21:54:45.415Z,33.60
2018-04-11T21:57:12.869Z,33.50
2018-04-11T21:59:40.313Z,33.60
2018-04-11T22:02:07.763Z,32.70
2018-04-11T22:04:35.206Z,34.90
2018-04-11T22:07:03.426Z,34.10
2018-04-11T22:09:30.881Z,34.00
2018-04-11T22:11:58.333Z,33.40
2018-04-11T22:14:25.782Z,34.30
2018-04-11T22:16:53.246Z,34.00
2018-04-11T22:19:20.732Z,33.60
2018-04-11T22:21:48.188Z,33.10
2018-04-11T22:24:15.614Z,33.80
2018-04-11T22:26:43.076Z,33.20
2018-04-11T22:29:10.515Z,33.70
2018-04-11T22:31:37.961Z,34.40
2018-04-11T22:34:05.407Z,35.10
2018-04-11T22:36:33.619Z,34.30
2018-04-11T22:39:01.118Z,34.20
2018-04-11T22:41:28.565Z,34.00
2018-04-11T22:43:56.007Z,33.90
2018-04-11T22:46:23.454Z,33.70
2018-04-11T22:48:50.905Z,33.80
2018-04-11T22:51:18.349Z,33.70
2018-04-11T22:53:45.802Z,33.70
2018-04-11T22:56:13.261Z,33.50
2018-04-11T22:58:40.710Z,33.40
2018-04-11T23:01:08.924Z,33.60
2018-04-11T23:03:36.384Z,33.60
2018-04-11T23:06:03.828Z,33.40
2018-04-11T23:08:31.278Z,32.90
2018-04-11T23:10:58.719Z,33.80
2018-04-11T23:13:26.180Z,33.70
2018-04-11T23:15:53.677Z,34.10
2018-04-11T23:18:21.166Z,35.00
2018-04-11T23:20:49.380Z,35.30
2018-04-11T23:23:16.818Z,35.30
2018-04-11T23:25:44.271Z,35.20
2018-04-11T23:28:11.722Z,35.80
2018-04-11T23:30:39.166Z,35.50
2018-04-11T23:33:06.619Z,35.50
2018-04-11T23:35:34.832Z,37.20
2018-04-11T23:38:02.273Z,36.60
2018-04-11T23:40:29.715Z,37.70
2018-04-11T23:42:57.153Z,38.30
2018-04-11T23:45:25.370Z,38.70
2018-04-11T23:47:52.816Z,38.60
2018-04-11T23:50:20.252Z,38.90
2018-04-11T23:52:47.702Z,39.00
2018-04-11T23:55:15.924Z,40.10
2018-04-11T23:57:43.365Z,40.00
